Roodhouse, Illinois
Current Conditions -  °F | °C
As of 10:15 AM on Friday 19 Dec 2014 (Local Time) from KIJX Reporting Station
Broken Clouds Broken Clouds  
Wind Chill: 28°   Ceiling: 4400
Heat Index: 33°   Visibility: 7mi
Dew Point: 26°   Wind: 5mph
Humidity: 78%   Direction: 90°E
Pressure: 30.33"   Gusts: NA
Location:  39.48°N, 90.37°W
Report Text: KIJX 191615Z AUTO 09004KT 7SM BKN044 00/M03 A3033 RMK AO2 T00031031
Loading
Personal Weather Stations






























Interactive Weather Map New forecast layout! Learn more

10-Day Weather Forecast

Advertisements
Track Severe Weather on mobile